sensor_id;sensor_type;location;lat;lon;timestamp;temperature;humidity
33863;DHT22;20158;51.436;-2.742;2022-07-29T00:00:59;19.80;57.50
33863;DHT22;20158;51.436;-2.742;2022-07-29T00:03:25;19.80;57.60
33863;DHT22;20158;51.436;-2.742;2022-07-29T00:05:51;19.70;57.50
33863;DHT22;20158;51.436;-2.742;2022-07-29T00:08:20;19.70;57.70
33863;DHT22;20158;51.436;-2.742;2022-07-29T00:10:46;19.60;57.60
33863;DHT22;20158;51.436;-2.742;2022-07-29T00:13:11;19.50;57.50
33863;DHT22;20158;51.436;-2.742;2022-07-29T00:15:37;19.50;57.60
33863;DHT22;20158;51.436;-2.742;2022-07-29T00:18:03;19.50;57.60
33863;DHT22;20158;51.436;-2.742;2022-07-29T00:20:29;19.50;57.70
33863;DHT22;20158;51.436;-2.742;2022-07-29T00:22:56;19.50;57.80
33863;DHT22;20158;51.436;-2.742;2022-07-29T00:25:22;19.40;58.30
33863;DHT22;20158;51.436;-2.742;2022-07-29T00:27:48;19.40;57.80
33863;DHT22;20158;51.436;-2.742;2022-07-29T00:30:14;19.40;57.90
33863;DHT22;20158;51.436;-2.742;2022-07-29T00:32:40;19.30;57.80
33863;DHT22;20158;51.436;-2.742;2022-07-29T00:35:07;19.30;57.80
33863;DHT22;20158;51.436;-2.742;2022-07-29T00:37:52;19.30;57.90
33863;DHT22;20158;51.436;-2.742;2022-07-29T00:40:18;19.30;57.90
33863;DHT22;20158;51.436;-2.742;2022-07-29T00:42:48;19.30;58.00
33863;DHT22;20158;51.436;-2.742;2022-07-29T00:45:15;19.20;57.90
33863;DHT22;20158;51.436;-2.742;2022-07-29T00:47:41;19.20;57.90
33863;DHT22;20158;51.436;-2.742;2022-07-29T00:50:09;19.20;57.90
33863;DHT22;20158;51.436;-2.742;2022-07-29T00:52:38;19.20;58.00
33863;DHT22;20158;51.436;-2.742;2022-07-29T00:55:06;19.20;58.00
33863;DHT22;20158;51.436;-2.742;2022-07-29T00:57:33;19.20;58.10
33863;DHT22;20158;51.436;-2.742;2022-07-29T00:59:59;19.20;58.10
33863;DHT22;20158;51.436;-2.742;2022-07-29T01:02:25;19.10;57.90
33863;DHT22;20158;51.436;-2.742;2022-07-29T01:04:51;19.10;58.00
33863;DHT22;20158;51.436;-2.742;2022-07-29T01:07:18;19.10;58.00
33863;DHT22;20158;51.436;-2.742;2022-07-29T01:09:45;19.10;58.10
33863;DHT22;20158;51.436;-2.742;2022-07-29T01:12:19;19.10;58.10
33863;DHT22;20158;51.436;-2.742;2022-07-29T01:14:47;19.10;58.20
33863;DHT22;20158;51.436;-2.742;2022-07-29T01:17:29;19.00;58.00
33863;DHT22;20158;51.436;-2.742;2022-07-29T01:20:02;19.00;58.10
33863;DHT22;20158;51.436;-2.742;2022-07-29T01:30:36;18.90;58.10
33863;DHT22;20158;51.436;-2.742;2022-07-29T01:33:07;18.90;58.00
33863;DHT22;20158;51.436;-2.742;2022-07-29T01:35:39;19.00;58.30
33863;DHT22;20158;51.436;-2.742;2022-07-29T01:38:09;18.90;58.20
33863;DHT22;20158;51.436;-2.742;2022-07-29T01:40:52;18.90;58.20
33863;DHT22;20158;51.436;-2.742;2022-07-29T01:43:53;18.90;58.30
33863;DHT22;20158;51.436;-2.742;2022-07-29T01:46:15;18.80;58.00
33863;DHT22;20158;51.436;-2.742;2022-07-29T01:48:47;18.80;57.90
33863;DHT22;20158;51.436;-2.742;2022-07-29T01:51:20;18.80;58.00
33863;DHT22;20158;51.436;-2.742;2022-07-29T01:54:12;18.80;58.20
33863;DHT22;20158;51.436;-2.742;2022-07-29T01:56:39;18.80;58.30
33863;DHT22;20158;51.436;-2.742;2022-07-29T01:59:08;18.70;57.90
33863;DHT22;20158;51.436;-2.742;2022-07-29T02:01:36;18.70;57.90
33863;DHT22;20158;51.436;-2.742;2022-07-29T02:04:04;18.70;58.00
33863;DHT22;20158;51.436;-2.742;2022-07-29T02:06:33;18.70;58.10
33863;DHT22;20158;51.436;-2.742;2022-07-29T02:09:01;18.70;58.30
33863;DHT22;20158;51.436;-2.742;2022-07-29T02:11:30;18.60;58.10
33863;DHT22;20158;51.436;-2.742;2022-07-29T02:13:58;18.60;58.20
33863;DHT22;20158;51.436;-2.742;2022-07-29T02:16:26;18.60;58.30
33863;DHT22;20158;51.436;-2.742;2022-07-29T02:18:55;18.50;58.20
33863;DHT22;20158;51.436;-2.742;2022-07-29T02:21:24;18.50;58.30
33863;DHT22;20158;51.436;-2.742;2022-07-29T02:23:52;18.40;58.20
33863;DHT22;20158;51.436;-2.742;2022-07-29T02:26:23;18.40;58.20
33863;DHT22;20158;51.436;-2.742;2022-07-29T02:28:55;18.40;58.40
33863;DHT22;20158;51.436;-2.742;2022-07-29T02:31:25;18.40;59.00
33863;DHT22;20158;51.436;-2.742;2022-07-29T02:33:53;18.30;58.30
33863;DHT22;20158;51.436;-2.742;2022-07-29T02:36:22;18.30;58.40
33863;DHT22;20158;51.436;-2.742;2022-07-29T02:38:50;18.20;58.40
33863;DHT22;20158;51.436;-2.742;2022-07-29T02:41:24;18.20;58.40
33863;DHT22;20158;51.436;-2.742;2022-07-29T02:43:56;18.20;58.50
33863;DHT22;20158;51.436;-2.742;2022-07-29T02:46:34;18.10;58.40
33863;DHT22;20158;51.436;-2.742;2022-07-29T02:51:41;18.10;58.50
33863;DHT22;20158;51.436;-2.742;2022-07-29T02:54:10;18.00;58.50
33863;DHT22;20158;51.436;-2.742;2022-07-29T02:56:38;18.00;58.50
33863;DHT22;20158;51.436;-2.742;2022-07-29T02:59:09;18.00;58.50
33863;DHT22;20158;51.436;-2.742;2022-07-29T03:01:40;17.90;58.40
33863;DHT22;20158;51.436;-2.742;2022-07-29T03:04:09;17.90;58.50
33863;DHT22;20158;51.436;-2.742;2022-07-29T03:06:37;17.90;58.50
33863;DHT22;20158;51.436;-2.742;2022-07-29T03:09:06;17.90;58.60
33863;DHT22;20158;51.436;-2.742;2022-07-29T03:11:33;17.80;58.50
33863;DHT22;20158;51.436;-2.742;2022-07-29T03:14:00;17.80;58.50
33863;DHT22;20158;51.436;-2.742;2022-07-29T03:16:26;17.80;58.60
33863;DHT22;20158;51.436;-2.742;2022-07-29T03:18:53;17.80;58.70
33863;DHT22;20158;51.436;-2.742;2022-07-29T03:21:19;17.70;58.50
33863;DHT22;20158;51.436;-2.742;2022-07-29T03:23:45;17.70;58.50
33863;DHT22;20158;51.436;-2.742;2022-07-29T03:26:12;17.70;58.70
33863;DHT22;20158;51.436;-2.742;2022-07-29T03:28:39;17.70;58.70
33863;DHT22;20158;51.436;-2.742;2022-07-29T03:31:04;17.70;58.70
33863;DHT22;20158;51.436;-2.742;2022-07-29T03:33:30;17.60;58.50
33863;DHT22;20158;51.436;-2.742;2022-07-29T03:35:57;17.60;58.60
33863;DHT22;20158;51.436;-2.742;2022-07-29T03:38:25;17.60;58.60
33863;DHT22;20158;51.436;-2.742;2022-07-29T03:41:05;17.60;58.70
33863;DHT22;20158;51.436;-2.742;2022-07-29T03:43:36;17.60;58.80
33863;DHT22;20158;51.436;-2.742;2022-07-29T03:46:04;17.60;58.70
33863;DHT22;20158;51.436;-2.742;2022-07-29T03:48:34;17.60;58.80
33863;DHT22;20158;51.436;-2.742;2022-07-29T03:51:02;17.50;58.60
33863;DHT22;20158;51.436;-2.742;2022-07-29T03:53:28;17.50;58.60
33863;DHT22;20158;51.436;-2.742;2022-07-29T03:55:58;17.50;58.70
33863;DHT22;20158;51.436;-2.742;2022-07-29T03:58:26;17.50;58.80
33863;DHT22;20158;51.436;-2.742;2022-07-29T04:00:54;17.40;58.60
33863;DHT22;20158;51.436;-2.742;2022-07-29T04:03:21;17.50;58.80
33863;DHT22;20158;51.436;-2.742;2022-07-29T04:06:03;17.40;58.70
33863;DHT22;20158;51.436;-2.742;2022-07-29T04:08:32;17.40;58.80
33863;DHT22;20158;51.436;-2.742;2022-07-29T04:10:59;17.40;58.70
33863;DHT22;20158;51.436;-2.742;2022-07-29T04:13:25;17.40;58.80
33863;DHT22;20158;51.436;-2.742;2022-07-29T04:15:50;17.40;58.80
33863;DHT22;20158;51.436;-2.742;2022-07-29T04:18:16;17.30;58.70
33863;DHT22;20158;51.436;-2.742;2022-07-29T04:20:43;17.30;58.80
33863;DHT22;20158;51.436;-2.742;2022-07-29T04:23:08;17.30;58.80
33863;DHT22;20158;51.436;-2.742;2022-07-29T04:25:39;17.30;58.90
33863;DHT22;20158;51.436;-2.742;2022-07-29T04:28:05;17.20;58.70
33863;DHT22;20158;51.436;-2.742;2022-07-29T04:30:32;17.20;58.80
33863;DHT22;20158;51.436;-2.742;2022-07-29T04:32:59;17.20;58.80
33863;DHT22;20158;51.436;-2.742;2022-07-29T04:35:27;17.20;58.90
33863;DHT22;20158;51.436;-2.742;2022-07-29T04:37:53;17.10;58.80
33863;DHT22;20158;51.436;-2.742;2022-07-29T04:40:19;17.10;58.80
33863;DHT22;20158;51.436;-2.742;2022-07-29T04:42:45;17.10;59.40
33863;DHT22;20158;51.436;-2.742;2022-07-29T04:45:11;17.10;58.90
33863;DHT22;20158;51.436;-2.742;2022-07-29T04:47:37;17.00;58.80
33863;DHT22;20158;51.436;-2.742;2022-07-29T04:50:03;17.00;58.80
33863;DHT22;20158;51.436;-2.742;2022-07-29T04:52:29;17.00;58.90
33863;DHT22;20158;51.436;-2.742;2022-07-29T04:54:55;17.00;58.90
33863;DHT22;20158;51.436;-2.742;2022-07-29T04:57:20;17.00;59.00
33863;DHT22;20158;51.436;-2.742;2022-07-29T04:59:46;17.00;59.00
33863;DHT22;20158;51.436;-2.742;2022-07-29T05:02:12;17.00;59.00
33863;DHT22;20158;51.436;-2.742;2022-07-29T05:04:38;17.00;59.10
33863;DHT22;20158;51.436;-2.742;2022-07-29T05:07:04;17.00;59.00
33863;DHT22;20158;51.436;-2.742;2022-07-29T05:09:30;17.00;59.10
33863;DHT22;20158;51.436;-2.742;2022-07-29T05:11:58;16.90;58.90
33863;DHT22;20158;51.436;-2.742;2022-07-29T05:14:23;17.00;59.10
33863;DHT22;20158;51.436;-2.742;2022-07-29T05:16:49;17.00;59.10
33863;DHT22;20158;51.436;-2.742;2022-07-29T05:19:17;17.00;59.10
33863;DHT22;20158;51.436;-2.742;2022-07-29T05:21:44;17.00;59.00
33863;DHT22;20158;51.436;-2.742;2022-07-29T05:24:10;17.00;59.00
33863;DHT22;20158;51.436;-2.742;2022-07-29T05:26:36;17.10;59.20
33863;DHT22;20158;51.436;-2.742;2022-07-29T05:29:02;17.10;59.20
33863;DHT22;20158;51.436;-2.742;2022-07-29T05:31:28;17.10;59.10
33863;DHT22;20158;51.436;-2.742;2022-07-29T05:33:54;17.10;59.00
33863;DHT22;20158;51.436;-2.742;2022-07-29T05:36:20;17.20;59.10
33863;DHT22;20158;51.436;-2.742;2022-07-29T05:38:45;17.20;59.00
33863;DHT22;20158;51.436;-2.742;2022-07-29T05:41:11;17.30;59.20
33863;DHT22;20158;51.436;-2.742;2022-07-29T05:43:37;17.30;59.10
33863;DHT22;20158;51.436;-2.742;2022-07-29T05:46:03;17.40;59.40
33863;DHT22;20158;51.436;-2.742;2022-07-29T05:48:29;17.50;60.10
33863;DHT22;20158;51.436;-2.742;2022-07-29T05:50:55;17.60;60.40
33863;DHT22;20158;51.436;-2.742;2022-07-29T05:53:21;17.70;60.40
33863;DHT22;20158;51.436;-2.742;2022-07-29T05:55:48;17.80;60.30
33863;DHT22;20158;51.436;-2.742;2022-07-29T05:58:13;17.80;60.20
33863;DHT22;20158;51.436;-2.742;2022-07-29T06:00:40;17.90;60.30
33863;DHT22;20158;51.436;-2.742;2022-07-29T06:03:05;18.00;60.30
33863;DHT22;20158;51.436;-2.742;2022-07-29T06:05:31;18.10;60.30
33863;DHT22;20158;51.436;-2.742;2022-07-29T06:07:57;18.20;60.30
33863;DHT22;20158;51.436;-2.742;2022-07-29T06:10:23;18.30;60.20
33863;DHT22;20158;51.436;-2.742;2022-07-29T06:12:50;18.40;60.10
33863;DHT22;20158;51.436;-2.742;2022-07-29T06:15:16;18.50;59.90
33863;DHT22;20158;51.436;-2.742;2022-07-29T06:17:42;18.70;59.80
33863;DHT22;20158;51.436;-2.742;2022-07-29T06:20:09;18.90;59.70
33863;DHT22;20158;51.436;-2.742;2022-07-29T06:22:35;19.10;59.50
33863;DHT22;20158;51.436;-2.742;2022-07-29T06:25:02;19.30;59.20
33863;DHT22;20158;51.436;-2.742;2022-07-29T06:27:27;19.60;59.10
33863;DHT22;20158;51.436;-2.742;2022-07-29T06:29:53;19.80;58.90
33863;DHT22;20158;51.436;-2.742;2022-07-29T06:32:19;20.10;58.90
33863;DHT22;20158;51.436;-2.742;2022-07-29T06:34:45;20.40;58.70
33863;DHT22;20158;51.436;-2.742;2022-07-29T06:37:11;20.70;58.40
33863;DHT22;20158;51.436;-2.742;2022-07-29T06:39:37;21.10;58.20
33863;DHT22;20158;51.436;-2.742;2022-07-29T06:42:06;21.50;58.10
33863;DHT22;20158;51.436;-2.742;2022-07-29T06:44:33;21.80;57.70
33863;DHT22;20158;51.436;-2.742;2022-07-29T06:47:01;22.20;57.60
33863;DHT22;20158;51.436;-2.742;2022-07-29T06:49:27;22.50;57.20
33863;DHT22;20158;51.436;-2.742;2022-07-29T06:51:53;22.90;57.10
33863;DHT22;20158;51.436;-2.742;2022-07-29T06:54:20;23.30;57.00
33863;DHT22;20158;51.436;-2.742;2022-07-29T06:56:45;23.60;56.50
33863;DHT22;20158;51.436;-2.742;2022-07-29T06:59:12;23.90;56.40
33863;DHT22;20158;51.436;-2.742;2022-07-29T07:01:41;24.30;56.30
33863;DHT22;20158;51.436;-2.742;2022-07-29T07:04:07;24.60;56.10
33863;DHT22;20158;51.436;-2.742;2022-07-29T07:06:34;24.90;55.90
33863;DHT22;20158;51.436;-2.742;2022-07-29T07:09:01;25.20;55.30
33863;DHT22;20158;51.436;-2.742;2022-07-29T07:11:27;25.50;54.70
33863;DHT22;20158;51.436;-2.742;2022-07-29T07:13:53;25.90;54.10
33863;DHT22;20158;51.436;-2.742;2022-07-29T07:16:19;26.20;53.30
33863;DHT22;20158;51.436;-2.742;2022-07-29T07:18:45;26.60;52.50
33863;DHT22;20158;51.436;-2.742;2022-07-29T07:21:11;26.90;51.80
33863;DHT22;20158;51.436;-2.742;2022-07-29T07:23:37;27.10;51.30
33863;DHT22;20158;51.436;-2.742;2022-07-29T07:26:03;27.40;50.80
33863;DHT22;20158;51.436;-2.742;2022-07-29T07:28:31;27.50;50.40
33863;DHT22;20158;51.436;-2.742;2022-07-29T07:30:57;27.70;50.00
33863;DHT22;20158;51.436;-2.742;2022-07-29T07:33:23;27.80;49.50
33863;DHT22;20158;51.436;-2.742;2022-07-29T07:35:49;27.90;49.10
33863;DHT22;20158;51.436;-2.742;2022-07-29T07:38:15;28.10;48.90
33863;DHT22;20158;51.436;-2.742;2022-07-29T07:40:41;28.20;48.40
33863;DHT22;20158;51.436;-2.742;2022-07-29T07:43:07;28.40;47.90
33863;DHT22;20158;51.436;-2.742;2022-07-29T07:45:33;28.40;47.90
33863;DHT22;20158;51.436;-2.742;2022-07-29T07:47:59;28.20;48.00
33863;DHT22;20158;51.436;-2.742;2022-07-29T07:50:25;28.10;48.30
33863;DHT22;20158;51.436;-2.742;2022-07-29T07:52:53;27.90;48.50
33863;DHT22;20158;51.436;-2.742;2022-07-29T07:55:23;27.90;48.70
33863;DHT22;20158;51.436;-2.742;2022-07-29T07:57:49;27.90;48.70
33863;DHT22;20158;51.436;-2.742;2022-07-29T08:00:16;27.90;48.40
33863;DHT22;20158;51.436;-2.742;2022-07-29T08:02:43;27.90;48.20
33863;DHT22;20158;51.436;-2.742;2022-07-29T08:05:11;27.90;48.10
33863;DHT22;20158;51.436;-2.742;2022-07-29T08:07:39;27.90;48.00
33863;DHT22;20158;51.436;-2.742;2022-07-29T08:10:05;27.90;47.90
33863;DHT22;20158;51.436;-2.742;2022-07-29T08:12:31;27.90;47.90
33863;DHT22;20158;51.436;-2.742;2022-07-29T08:14:57;27.90;47.80
33863;DHT22;20158;51.436;-2.742;2022-07-29T08:17:23;27.90;47.60
33863;DHT22;20158;51.436;-2.742;2022-07-29T08:19:49;27.90;47.40
33863;DHT22;20158;51.436;-2.742;2022-07-29T08:22:15;27.90;47.30
33863;DHT22;20158;51.436;-2.742;2022-07-29T08:24:41;27.90;47.20
33863;DHT22;20158;51.436;-2.742;2022-07-29T08:27:13;27.80;47.30
33863;DHT22;20158;51.436;-2.742;2022-07-29T08:29:39;27.60;47.40
33863;DHT22;20158;51.436;-2.742;2022-07-29T08:32:05;27.50;47.50
33863;DHT22;20158;51.436;-2.742;2022-07-29T08:34:31;27.30;47.60
33863;DHT22;20158;51.436;-2.742;2022-07-29T08:36:57;27.20;47.70
33863;DHT22;20158;51.436;-2.742;2022-07-29T08:39:24;27.10;47.80
33863;DHT22;20158;51.436;-2.742;2022-07-29T08:41:51;27.00;47.80
33863;DHT22;20158;51.436;-2.742;2022-07-29T08:44:18;26.90;47.80
33863;DHT22;20158;51.436;-2.742;2022-07-29T08:46:45;26.90;47.70
33863;DHT22;20158;51.436;-2.742;2022-07-29T08:49:11;26.90;47.70
33863;DHT22;20158;51.436;-2.742;2022-07-29T08:51:39;26.80;47.50
33863;DHT22;20158;51.436;-2.742;2022-07-29T08:54:06;26.80;47.40
33863;DHT22;20158;51.436;-2.742;2022-07-29T08:56:34;26.80;47.20
33863;DHT22;20158;51.436;-2.742;2022-07-29T08:59:03;26.70;47.10
33863;DHT22;20158;51.436;-2.742;2022-07-29T09:01:33;26.70;47.00
33863;DHT22;20158;51.436;-2.742;2022-07-29T09:03:59;26.70;46.90
33863;DHT22;20158;51.436;-2.742;2022-07-29T09:06:32;26.60;46.80
33863;DHT22;20158;51.436;-2.742;2022-07-29T09:09:00;26.60;46.70
33863;DHT22;20158;51.436;-2.742;2022-07-29T09:11:27;26.60;46.70
33863;DHT22;20158;51.436;-2.742;2022-07-29T09:13:53;26.60;46.80
33863;DHT22;20158;51.436;-2.742;2022-07-29T09:16:19;26.70;46.90
33863;DHT22;20158;51.436;-2.742;2022-07-29T09:18:46;26.70;46.70
33863;DHT22;20158;51.436;-2.742;2022-07-29T09:21:13;26.80;46.60
33863;DHT22;20158;51.436;-2.742;2022-07-29T09:24:06;26.90;46.60
33863;DHT22;20158;51.436;-2.742;2022-07-29T09:26:42;26.90;46.50
33863;DHT22;20158;51.436;-2.742;2022-07-29T09:29:11;26.90;46.40
33863;DHT22;20158;51.436;-2.742;2022-07-29T09:31:44;27.00;46.40
33863;DHT22;20158;51.436;-2.742;2022-07-29T09:34:11;27.00;46.30
33863;DHT22;20158;51.436;-2.742;2022-07-29T09:36:47;27.00;46.30
33863;DHT22;20158;51.436;-2.742;2022-07-29T09:39:15;27.10;46.10
33863;DHT22;20158;51.436;-2.742;2022-07-29T09:41:54;27.20;46.00
33863;DHT22;20158;51.436;-2.742;2022-07-29T09:44:21;27.20;45.90
33863;DHT22;20158;51.436;-2.742;2022-07-29T09:47:02;27.20;45.90
33863;DHT22;20158;51.436;-2.742;2022-07-29T09:49:36;27.20;45.70
33863;DHT22;20158;51.436;-2.742;2022-07-29T09:52:15;27.20;45.80
33863;DHT22;20158;51.436;-2.742;2022-07-29T09:54:41;27.30;45.90
33863;DHT22;20158;51.436;-2.742;2022-07-29T09:57:09;27.30;45.80
33863;DHT22;20158;51.436;-2.742;2022-07-29T10:00:04;27.40;45.60
33863;DHT22;20158;51.436;-2.742;2022-07-29T10:02:41;27.40;45.40
33863;DHT22;20158;51.436;-2.742;2022-07-29T10:05:21;27.40;45.30
33863;DHT22;20158;51.436;-2.742;2022-07-29T10:07:57;27.40;45.20
33863;DHT22;20158;51.436;-2.742;2022-07-29T10:12:54;27.50;45.20
33863;DHT22;20158;51.436;-2.742;2022-07-29T10:15:26;27.50;45.10
33863;DHT22;20158;51.436;-2.742;2022-07-29T10:17:56;27.50;44.90
33863;DHT22;20158;51.436;-2.742;2022-07-29T10:20:23;27.60;45.40
33863;DHT22;20158;51.436;-2.742;2022-07-29T10:22:50;27.60;44.80
33863;DHT22;20158;51.436;-2.742;2022-07-29T10:25:17;27.70;44.70
33863;DHT22;20158;51.436;-2.742;2022-07-29T10:27:45;27.70;44.50
33863;DHT22;20158;51.436;-2.742;2022-07-29T10:30:12;27.80;44.50
33863;DHT22;20158;51.436;-2.742;2022-07-29T10:38:30;28.00;43.90
33863;DHT22;20158;51.436;-2.742;2022-07-29T10:46:28;28.20;44.60
33863;DHT22;20158;51.436;-2.742;2022-07-29T10:51:54;28.40;43.60
33863;DHT22;20158;51.436;-2.742;2022-07-29T10:57:26;28.60;43.30
33863;DHT22;20158;51.436;-2.742;2022-07-29T11:07:37;28.80;42.60
33863;DHT22;20158;51.436;-2.742;2022-07-29T11:10:20;28.90;42.60
33863;DHT22;20158;51.436;-2.742;2022-07-29T11:12:47;28.90;42.20
33863;DHT22;20158;51.436;-2.742;2022-07-29T11:15:15;29.00;42.40
33863;DHT22;20158;51.436;-2.742;2022-07-29T11:23:30;29.10;41.70
33863;DHT22;20158;51.436;-2.742;2022-07-29T11:29:01;29.30;41.40
33863;DHT22;20158;51.436;-2.742;2022-07-29T11:31:42;29.40;41.20
33863;DHT22;20158;51.436;-2.742;2022-07-29T11:34:18;29.40;41.10
33863;DHT22;20158;51.436;-2.742;2022-07-29T11:39:42;29.60;40.70
33863;DHT22;20158;51.436;-2.742;2022-07-29T11:47:24;29.90;40.50
33863;DHT22;20158;51.436;-2.742;2022-07-29T11:49:51;30.00;40.40
33863;DHT22;20158;51.436;-2.742;2022-07-29T11:52:18;30.00;40.20
33863;DHT22;20158;51.436;-2.742;2022-07-29T11:54:44;30.10;40.00
33863;DHT22;20158;51.436;-2.742;2022-07-29T11:57:13;30.20;39.90
33863;DHT22;20158;51.436;-2.742;2022-07-29T11:59:44;30.30;39.70
33863;DHT22;20158;51.436;-2.742;2022-07-29T12:02:10;30.30;39.60
33863;DHT22;20158;51.436;-2.742;2022-07-29T12:04:57;30.50;39.50
33863;DHT22;20158;51.436;-2.742;2022-07-29T12:07:31;30.50;38.80
33863;DHT22;20158;51.436;-2.742;2022-07-29T12:09:58;30.60;39.00
33863;DHT22;20158;51.436;-2.742;2022-07-29T12:12:24;30.70;38.90
33863;DHT22;20158;51.436;-2.742;2022-07-29T12:14:50;30.80;38.70
33863;DHT22;20158;51.436;-2.742;2022-07-29T12:19:55;30.90;38.20
33863;DHT22;20158;51.436;-2.742;2022-07-29T12:22:29;31.00;38.30
33863;DHT22;20158;51.436;-2.742;2022-07-29T12:24:55;31.00;38.00
33863;DHT22;20158;51.436;-2.742;2022-07-29T12:27:22;31.10;38.00
33863;DHT22;20158;51.436;-2.742;2022-07-29T12:29:57;31.20;37.90
33863;DHT22;20158;51.436;-2.742;2022-07-29T12:32:32;31.30;37.60
33863;DHT22;20158;51.436;-2.742;2022-07-29T12:34:58;31.40;37.50
33863;DHT22;20158;51.436;-2.742;2022-07-29T12:37:25;31.50;37.40
33863;DHT22;20158;51.436;-2.742;2022-07-29T12:39:51;31.60;37.20
33863;DHT22;20158;51.436;-2.742;2022-07-29T12:42:17;31.70;37.00
33863;DHT22;20158;51.436;-2.742;2022-07-29T12:44:52;31.80;36.90
33863;DHT22;20158;51.436;-2.742;2022-07-29T12:47:19;31.90;36.50
33863;DHT22;20158;51.436;-2.742;2022-07-29T12:49:46;32.00;36.50
33863;DHT22;20158;51.436;-2.742;2022-07-29T12:52:28;32.10;36.50
33863;DHT22;20158;51.436;-2.742;2022-07-29T12:54:55;32.10;36.30
33863;DHT22;20158;51.436;-2.742;2022-07-29T12:57:21;32.20;36.40
33863;DHT22;20158;51.436;-2.742;2022-07-29T13:00:07;32.40;36.30
33863;DHT22;20158;51.436;-2.742;2022-07-29T13:02:39;32.50;35.90
33863;DHT22;20158;51.436;-2.742;2022-07-29T13:05:07;32.70;36.00
33863;DHT22;20158;51.436;-2.742;2022-07-29T13:07:38;32.90;35.80
33863;DHT22;20158;51.436;-2.742;2022-07-29T13:15:29;33.30;35.50
33863;DHT22;20158;51.436;-2.742;2022-07-29T13:17:55;33.50;35.70
33863;DHT22;20158;51.436;-2.742;2022-07-29T13:20:24;33.60;35.70
33863;DHT22;20158;51.436;-2.742;2022-07-29T13:22:50;33.70;35.70
33863;DHT22;20158;51.436;-2.742;2022-07-29T13:25:24;33.90;35.80
33863;DHT22;20158;51.436;-2.742;2022-07-29T13:27:51;33.90;35.50
33863;DHT22;20158;51.436;-2.742;2022-07-29T13:30:16;34.00;35.50
33863;DHT22;20158;51.436;-2.742;2022-07-29T13:32:42;34.10;35.50
33863;DHT22;20158;51.436;-2.742;2022-07-29T13:35:09;34.10;35.40
33863;DHT22;20158;51.436;-2.742;2022-07-29T13:37:36;34.10;35.30
33863;DHT22;20158;51.436;-2.742;2022-07-29T13:40:05;34.20;35.30
33863;DHT22;20158;51.436;-2.742;2022-07-29T13:42:34;34.20;35.20
33863;DHT22;20158;51.436;-2.742;2022-07-29T13:45:01;34.30;35.20
33863;DHT22;20158;51.436;-2.742;2022-07-29T13:47:27;34.50;35.30
33863;DHT22;20158;51.436;-2.742;2022-07-29T13:49:54;34.60;35.20
33863;DHT22;20158;51.436;-2.742;2022-07-29T13:52:20;34.70;35.20
33863;DHT22;20158;51.436;-2.742;2022-07-29T13:54:46;34.70;35.20
33863;DHT22;20158;51.436;-2.742;2022-07-29T13:57:13;34.80;35.20
33863;DHT22;20158;51.436;-2.742;2022-07-29T13:59:42;34.80;35.40
33863;DHT22;20158;51.436;-2.742;2022-07-29T14:02:09;34.80;35.50
33863;DHT22;20158;51.436;-2.742;2022-07-29T14:04:36;34.80;35.70
33863;DHT22;20158;51.436;-2.742;2022-07-29T14:07:03;34.70;35.80
33863;DHT22;20158;51.436;-2.742;2022-07-29T14:09:30;34.70;35.90
33863;DHT22;20158;51.436;-2.742;2022-07-29T14:11:55;34.60;35.90
33863;DHT22;20158;51.436;-2.742;2022-07-29T14:14:21;34.60;35.90
33863;DHT22;20158;51.436;-2.742;2022-07-29T14:16:47;34.50;35.90
33863;DHT22;20158;51.436;-2.742;2022-07-29T14:19:13;34.60;36.10
33863;DHT22;20158;51.436;-2.742;2022-07-29T14:21:39;34.60;36.10
33863;DHT22;20158;51.436;-2.742;2022-07-29T14:24:05;34.60;36.20
33863;DHT22;20158;51.436;-2.742;2022-07-29T14:26:32;34.50;36.20
33863;DHT22;20158;51.436;-2.742;2022-07-29T14:28:57;34.50;36.10
33863;DHT22;20158;51.436;-2.742;2022-07-29T14:31:23;34.50;36.30
33863;DHT22;20158;51.436;-2.742;2022-07-29T14:33:49;34.50;36.90
33863;DHT22;20158;51.436;-2.742;2022-07-29T14:36:15;34.50;36.20
33863;DHT22;20158;51.436;-2.742;2022-07-29T14:38:41;34.50;36.10
33863;DHT22;20158;51.436;-2.742;2022-07-29T14:41:08;34.40;36.10
33863;DHT22;20158;51.436;-2.742;2022-07-29T14:43:34;34.20;36.20
33863;DHT22;20158;51.436;-2.742;2022-07-29T14:46:01;33.90;36.30
33863;DHT22;20158;51.436;-2.742;2022-07-29T14:48:27;33.90;36.40
33863;DHT22;20158;51.436;-2.742;2022-07-29T14:50:53;33.70;36.40
33863;DHT22;20158;51.436;-2.742;2022-07-29T14:53:20;33.60;36.60
33863;DHT22;20158;51.436;-2.742;2022-07-29T14:55:46;33.40;36.60
33863;DHT22;20158;51.436;-2.742;2022-07-29T14:58:12;33.30;36.70
33863;DHT22;20158;51.436;-2.742;2022-07-29T15:00:37;33.40;36.80
33863;DHT22;20158;51.436;-2.742;2022-07-29T15:03:04;33.50;36.70
33863;DHT22;20158;51.436;-2.742;2022-07-29T15:05:31;33.70;36.60
33863;DHT22;20158;51.436;-2.742;2022-07-29T15:07:58;33.90;36.40
33863;DHT22;20158;51.436;-2.742;2022-07-29T15:10:24;34.10;36.10
33863;DHT22;20158;51.436;-2.742;2022-07-29T15:12:53;34.30;35.80
33863;DHT22;20158;51.436;-2.742;2022-07-29T15:15:18;34.60;35.40
33863;DHT22;20158;51.436;-2.742;2022-07-29T15:17:44;34.80;35.00
33863;DHT22;20158;51.436;-2.742;2022-07-29T15:20:11;35.00;34.80
33863;DHT22;20158;51.436;-2.742;2022-07-29T15:22:37;35.20;34.40
33863;DHT22;20158;51.436;-2.742;2022-07-29T15:25:05;35.30;34.10
33863;DHT22;20158;51.436;-2.742;2022-07-29T15:27:31;35.30;33.90
33863;DHT22;20158;51.436;-2.742;2022-07-29T15:29:56;35.40;33.80
33863;DHT22;20158;51.436;-2.742;2022-07-29T15:32:23;35.60;33.70
33863;DHT22;20158;51.436;-2.742;2022-07-29T15:34:51;35.60;33.30
33863;DHT22;20158;51.436;-2.742;2022-07-29T15:37:17;35.80;33.10
33863;DHT22;20158;51.436;-2.742;2022-07-29T15:39:43;35.80;32.90
33863;DHT22;20158;51.436;-2.742;2022-07-29T15:42:09;35.90;32.70
33863;DHT22;20158;51.436;-2.742;2022-07-29T15:44:34;36.00;32.50
33863;DHT22;20158;51.436;-2.742;2022-07-29T15:47:00;36.20;32.50
33863;DHT22;20158;51.436;-2.742;2022-07-29T15:52:02;36.70;32.10
33863;DHT22;20158;51.436;-2.742;2022-07-29T15:54:29;36.60;31.80
33863;DHT22;20158;51.436;-2.742;2022-07-29T15:56:55;36.50;31.90
33863;DHT22;20158;51.436;-2.742;2022-07-29T15:59:21;36.30;31.70
33863;DHT22;20158;51.436;-2.742;2022-07-29T16:01:48;36.10;32.30
33863;DHT22;20158;51.436;-2.742;2022-07-29T16:04:15;35.90;31.70
33863;DHT22;20158;51.436;-2.742;2022-07-29T16:06:41;35.70;31.70
33863;DHT22;20158;51.436;-2.742;2022-07-29T16:09:07;35.60;31.70
33863;DHT22;20158;51.436;-2.742;2022-07-29T16:11:33;35.60;32.40
33863;DHT22;20158;51.436;-2.742;2022-07-29T16:13:59;35.60;31.70
33863;DHT22;20158;51.436;-2.742;2022-07-29T16:16:25;35.70;31.70
33863;DHT22;20158;51.436;-2.742;2022-07-29T16:18:51;35.70;31.60
33863;DHT22;20158;51.436;-2.742;2022-07-29T16:21:16;35.70;31.50
33863;DHT22;20158;51.436;-2.742;2022-07-29T16:23:42;35.60;31.50
33863;DHT22;20158;51.436;-2.742;2022-07-29T16:26:08;35.50;31.40